Time;durP1;ratioP1;P1;durP2;ratioP2;P2;SDS_P1;SDS_P2;PMS_P1;PMS_P2;Temp;Humidity;BMP_temperature;BMP_pressure;BME280_temperature;BME280_humidity;BME280_pressure;Samples;Min_cycle;Max_cycle;Signal;HPM_P1;HPM_P2
2020/12/04 00:01:35;;;;;;;26.98;15.70;;;;;;;3.22;96.74;98258.78;5010919;28;20454;-89
2020/12/04 00:04:01;;;;;;;26.42;14.70;;;;;;;3.22;97.54;98256.13;4994615;28;20399;-88
2020/12/04 00:06:26;;;;;;;25.80;15.73;;;;;;;3.21;96.80;98257.09;5000656;28;20038;-86
2020/12/04 00:08:54;;;;;;;24.98;14.65;;;;;;;3.26;96.58;98257.50;5001582;28;20049;-87
2020/12/04 00:11:24;;;;;;;26.67;15.38;;;;;;;3.21;96.81;98257.09;4992418;28;21035;-88
2020/12/04 00:13:50;;;;;;;27.13;16.60;;;;;;;3.20;96.43;98239.50;5020098;28;20046;-86
2020/12/04 00:16:15;;;;;;;28.42;16.13;;;;;;;3.23;97.43;98225.91;5005468;28;20042;-86
2020/12/04 00:18:40;;;;;;;25.58;16.00;;;;;;;3.21;96.55;98227.88;5005978;28;20057;-86
2020/12/04 00:21:18;;;;;;;24.25;14.18;;;;;;;3.25;96.21;98221.25;5008619;28;20044;-88
2020/12/04 00:23:46;;;;;;;23.73;14.00;;;;;;;3.23;96.51;98220.59;4994009;28;20038;-86
2020/12/04 00:26:11;;;;;;;22.52;13.85;;;;;;;3.24;96.70;98216.94;5026603;28;20053;-88
2020/12/04 00:28:39;;;;;;;24.98;14.10;;;;;;;3.20;97.03;98215.59;5011282;28;20042;-87
2020/12/04 00:31:05;;;;;;;27.40;17.83;;;;;;;3.18;97.28;98206.91;4982466;28;20121;-85
2020/12/04 00:33:30;;;;;;;26.73;15.27;;;;;;;3.14;96.93;98193.13;4987469;28;20117;-88
2020/12/04 00:35:55;;;;;;;24.40;14.75;;;;;;;3.13;97.25;98188.78;4996893;28;20494;-85
2020/12/04 00:38:21;;;;;;;25.05;15.10;;;;;;;3.12;96.89;98177.31;5005246;28;20862;-85
2020/12/04 00:40:46;;;;;;;23.88;13.27;;;;;;;3.14;96.92;98178.00;4993970;28;20076;-86
2020/12/04 00:43:12;;;;;;;24.88;14.23;;;;;;;3.12;96.72;98174.66;5011055;28;20042;-86
2020/12/04 00:45:37;;;;;;;23.83;14.07;;;;;;;3.08;97.02;98165.34;5002862;28;20046;-85
2020/12/04 00:48:05;;;;;;;24.42;15.30;;;;;;;3.08;97.00;98161.84;4988256;28;20492;-87
2020/12/04 00:50:30;;;;;;;29.00;15.43;;;;;;;3.08;97.11;98168.00;4999862;28;20398;-86
2020/12/04 00:52:55;;;;;;;26.42;13.82;;;;;;;3.09;96.56;98171.47;5002270;28;20031;-87
2020/12/04 00:55:21;;;;;;;25.60;14.65;;;;;;;3.11;96.53;98162.38;4988938;28;20051;-87
2020/12/04 00:57:46;;;;;;;24.92;15.18;;;;;;;3.09;96.57;98161.69;5009659;28;20490;-87
2020/12/04 01:00:12;;;;;;;22.30;13.48;;;;;;;3.07;96.49;98166.31;5003040;28;20077;-86
2020/12/04 01:02:40;;;;;;;23.65;15.10;;;;;;;3.05;96.53;98148.84;4989277;28;20120;-87
2020/12/04 01:05:06;;;;;;;21.88;14.70;;;;;;;3.03;96.45;98133.06;4988390;28;20037;-85
2020/12/04 01:07:31;;;;;;;20.60;12.02;;;;;;;3.06;96.34;98148.72;5017365;28;20459;-85
2020/12/04 01:09:57;;;;;;;26.85;13.73;;;;;;;3.02;96.70;98136.72;4992201;28;20042;-86
2020/12/04 01:12:22;;;;;;;21.17;12.40;;;;;;;3.01;96.63;98145.69;4993706;28;20384;-89
2020/12/04 01:14:48;;;;;;;20.88;11.95;;;;;;;3.06;96.40;98134.59;4988869;28;20036;-86
2020/12/04 01:17:15;;;;;;;22.45;12.75;;;;;;;3.07;96.45;98130.94;4990538;28;20554;-86
2020/12/04 01:19:40;;;;;;;21.33;12.25;;;;;;;3.11;96.31;98133.13;4994177;28;20407;-85
2020/12/04 01:22:06;;;;;;;20.95;12.48;;;;;;;3.10;96.18;98118.16;5010716;28;20038;-88
2020/12/04 01:24:31;;;;;;;18.70;11.02;;;;;;;3.16;96.18;98114.06;5007309;28;20121;-85
2020/12/04 01:27:01;;;;;;;20.95;12.70;;;;;;;3.15;95.85;98107.91;5013254;28;20128;-90
2020/12/04 01:29:26;;;;;;;22.88;12.52;;;;;;;3.17;95.50;98114.91;4986175;28;20046;-87
2020/12/04 01:31:51;;;;;;;19.75;11.05;;;;;;;3.15;96.25;98102.59;4994858;28;20046;-85
2020/12/04 01:34:17;;;;;;;17.83;11.52;;;;;;;3.14;96.58;98100.09;5006036;28;20034;-85
2020/12/04 01:36:42;;;;;;;21.88;12.45;;;;;;;3.18;96.28;98101.47;4992286;28;20096;-86
2020/12/04 01:39:11;;;;;;;17.83;11.13;;;;;;;3.18;96.01;98093.50;4982109;28;20034;-85
2020/12/04 01:41:38;;;;;;;19.25;10.90;;;;;;;3.20;95.93;98085.34;4998687;28;20099;-85
2020/12/04 01:44:05;;;;;;;19.52;12.43;;;;;;;3.19;96.15;98081.84;4994880;28;20033;-87
2020/12/04 01:46:33;;;;;;;23.10;13.40;;;;;;;3.20;96.22;98072.88;5007298;28;20042;-85
2020/12/04 01:49:01;;;;;;;22.05;12.98;;;;;;;3.23;95.90;98071.75;5003551;28;20121;-87
2020/12/04 01:51:29;;;;;;;18.90;11.10;;;;;;;3.24;95.89;98070.72;5008673;28;20407;-86
2020/12/04 01:53:55;;;;;;;19.08;11.85;;;;;;;3.20;96.00;98062.25;4989131;28;20088;-86
2020/12/04 01:56:26;;;;;;;19.70;11.20;;;;;;;3.20;96.27;98066.75;5007951;28;20047;-87
2020/12/04 01:58:52;;;;;;;21.83;14.00;;;;;;;3.21;95.83;98061.28;4991162;28;20080;-88
2020/12/04 02:01:17;;;;;;;19.88;11.95;;;;;;;3.23;96.75;98059.28;5002103;28;20113;-86
2020/12/04 02:03:43;;;;;;;24.15;12.80;;;;;;;3.19;96.91;98043.81;4994274;28;20034;-86
2020/12/04 02:06:55;;;;;;;22.63;12.23;;;;;;;3.24;96.39;98041.50;4986505;28;20414;-86
2020/12/04 02:09:26;;;;;;;22.27;11.48;;;;;;;3.23;96.90;98039.84;4985192;28;20053;-86
2020/12/04 02:11:53;;;;;;;20.42;11.18;;;;;;;3.22;96.50;98038.19;4999589;28;20099;-86
2020/12/04 02:14:19;;;;;;;20.05;11.73;;;;;;;3.24;96.42;98030.88;4987406;28;20042;-87
2020/12/04 02:16:51;;;;;;;17.70;10.50;;;;;;;3.21;96.22;98029.38;4993963;28;20053;-92
2020/12/04 02:19:16;;;;;;;20.38;11.57;;;;;;;3.21;97.19;98032.03;5002001;28;20046;-86
2020/12/04 02:21:42;;;;;;;19.75;11.52;;;;;;;3.24;97.07;98025.53;5008214;28;20045;-87
2020/12/04 02:24:08;;;;;;;21.38;12.13;;;;;;;3.22;96.90;98019.56;5007990;28;20038;-87
2020/12/04 02:26:37;;;;;;;21.05;12.13;;;;;;;3.21;96.96;98007.25;5008704;28;20046;-87
2020/12/04 02:29:03;;;;;;;20.93;12.00;;;;;;;3.25;96.41;98027.22;5004233;28;20049;-88
2020/12/04 02:31:29;;;;;;;20.70;11.65;;;;;;;3.23;96.73;98016.75;5002974;28;20268;-89
2020/12/04 02:33:57;;;;;;;16.92;10.55;;;;;;;3.23;97.17;98008.78;4986723;28;20483;-86
2020/12/04 02:36:23;;;;;;;19.77;10.98;;;;;;;3.25;96.78;98003.31;5005028;28;20064;-87
2020/12/04 02:38:48;;;;;;;20.15;11.70;;;;;;;3.24;96.52;98006.94;5000515;28;20046;-87
2020/12/04 02:41:14;;;;;;;20.48;12.63;;;;;;;3.21;96.84;97986.84;5004401;28;20553;-88
2020/12/04 02:43:42;;;;;;;19.77;12.68;;;;;;;3.24;96.91;97991.00;5006884;28;20049;-90
2020/12/04 02:46:08;;;;;;;19.42;11.45;;;;;;;3.25;96.53;97979.38;4993497;28;20037;-85
2020/12/04 02:48:34;;;;;;;17.38;10.38;;;;;;;3.26;97.11;97979.22;5005737;28;20648;-87
2020/12/04 02:51:05;;;;;;;19.02;10.88;;;;;;;3.28;97.04;97973.75;4993559;28;20048;-87
2020/12/04 02:53:34;;;;;;;17.55;10.85;;;;;;;3.28;96.99;97971.94;5005782;28;20501;-87
2020/12/04 02:55:59;;;;;;;20.42;11.38;;;;;;;3.30;97.06;97961.97;5004035;28;20403;-88
2020/12/04 02:58:26;;;;;;;19.13;11.27;;;;;;;3.28;96.98;97952.47;4991638;28;20038;-88
2020/12/04 03:00:51;;;;;;;19.13;11.25;;;;;;;3.31;97.04;97957.47;4989879;28;20069;-86
2020/12/04 03:03:17;;;;;;;17.45;10.55;;;;;;;3.30;96.63;97966.44;4985916;28;20121;-88
2020/12/04 03:05:42;;;;;;;18.08;11.00;;;;;;;3.29;97.15;97946.16;5010246;28;20041;-89
2020/12/04 03:08:08;;;;;;;19.48;10.10;;;;;;;3.30;96.74;97948.66;4996839;28;20045;-87
2020/12/04 03:10:38;;;;;;;18.98;10.75;;;;;;;3.29;97.15;97944.34;5006611;28;20041;-88
2020/12/04 03:13:04;;;;;;;17.35;11.43;;;;;;;3.30;97.06;97934.56;4992367;28;20487;-87
2020/12/04 03:15:29;;;;;;;17.83;10.27;;;;;;;3.31;97.04;97933.53;4991979;28;20052;-88
2020/12/04 03:17:56;;;;;;;17.52;10.50;;;;;;;3.31;96.84;97920.25;5007558;28;20475;-88
2020/12/04 03:20:22;;;;;;;16.98;9.23;;;;;;;3.33;96.98;97912.97;5017382;28;20487;-86
2020/12/04 03:22:50;;;;;;;19.33;11.23;;;;;;;3.34;97.13;97898.66;4992480;28;20048;-87
2020/12/04 03:25:16;;;;;;;16.17;10.03;;;;;;;3.32;97.49;97916.59;5004928;28;20035;-90
2020/12/04 03:27:41;;;;;;;17.23;11.00;;;;;;;3.34;96.91;97906.63;5002272;28;20057;-88
2020/12/04 03:30:07;;;;;;;16.45;9.88;;;;;;;3.36;97.27;97906.47;4990938;28;20053;-87
2020/12/04 03:32:34;;;;;;;19.90;10.48;;;;;;;3.36;97.17;97911.78;5008776;28;20030;-87
2020/12/04 03:35:02;;;;;;;17.45;10.27;;;;;;;3.35;97.03;97904.81;4992695;28;20057;-89
2020/12/04 03:37:33;;;;;;;18.23;11.15;;;;;;;3.33;97.04;97902.31;4991999;28;20475;-87
2020/12/04 03:40:06;;;;;;;18.55;11.63;;;;;;;3.33;97.26;97903.16;5026243;28;20034;-87
2020/12/04 03:42:34;;;;;;;18.60;10.45;;;;;;;3.34;97.32;97898.66;5007804;28;20105;-89
2020/12/04 03:44:59;;;;;;;20.92;11.18;;;;;;;3.34;97.42;97882.69;4996238;28;20041;-88
2020/12/04 03:47:27;;;;;;;18.90;11.18;;;;;;;3.37;97.35;97893.00;5009542;28;20372;-87
2020/12/04 03:50:02;;;;;;;15.30;9.73;;;;;;;3.37;97.25;97893.00;5008376;28;20042;-87
2020/12/04 03:52:27;;;;;;;16.73;9.48;;;;;;;3.35;97.31;97881.72;4979366;28;20053;-90
2020/12/04 03:54:53;;;;;;;16.30;10.27;;;;;;;3.38;97.41;97877.91;4983061;28;20064;-89
2020/12/04 03:57:18;;;;;;;16.65;10.50;;;;;;;3.39;96.99;97872.44;5005949;28;20104;-89
2020/12/04 03:59:43;;;;;;;19.88;11.25;;;;;;;3.37;97.24;97869.06;5001004;28;20054;-89
2020/12/04 04:02:09;;;;;;;17.35;11.25;;;;;;;3.37;97.13;97869.06;5008738;28;20533;-87
2020/12/04 04:04:34;;;;;;;16.48;10.68;;;;;;;3.39;97.26;97858.31;5022255;28;20070;-88
2020/12/04 04:07:03;;;;;;;19.13;10.73;;;;;;;3.43;96.71;97868.44;4992624;28;20084;-88
2020/12/04 04:09:28;;;;;;;17.65;9.05;;;;;;;3.45;96.50;97873.59;4980615;28;20039;-88
2020/12/04 04:11:56;;;;;;;16.17;10.13;;;;;;;3.41;96.87;97875.75;4977853;28;20043;-86
2020/12/04 04:14:21;;;;;;;15.80;9.55;;;;;;;3.47;96.87;97866.28;5005363;28;20590;-89
2020/12/04 04:16:47;;;;;;;16.83;8.93;;;;;;;3.46;96.59;97869.91;4965697;28;20129;-88
2020/12/04 04:19:12;;;;;;;15.38;8.82;;;;;;;3.47;96.81;97861.78;4950964;28;20500;-88
2020/12/04 04:21:39;;;;;;;14.52;9.23;;;;;;;3.48;96.83;97855.47;4974297;28;20050;-86
2020/12/04 04:24:06;;;;;;;16.20;9.27;;;;;;;3.48;96.54;97866.13;4956446;28;20039;-89
2020/12/04 04:26:34;;;;;;;14.13;9.60;;;;;;;3.48;96.82;97855.47;4966036;28;20120;-87
2020/12/04 04:29:02;;;;;;;14.45;9.07;;;;;;;3.49;96.43;97853.66;4966896;28;20034;-89
2020/12/04 04:31:28;;;;;;;16.05;9.48;;;;;;;3.47;96.32;97856.47;4980833;28;20162;-87
2020/12/04 04:33:53;;;;;;;13.05;7.93;;;;;;;3.48;96.86;97860.78;4967296;28;20046;-89
2020/12/04 04:36:19;;;;;;;16.75;9.77;;;;;;;3.48;96.58;97854.66;4987120;28;20066;-88
2020/12/04 04:38:44;;;;;;;15.13;9.50;;;;;;;3.50;96.66;97857.97;4956117;28;20034;-88
2020/12/04 04:41:12;;;;;;;14.60;9.43;;;;;;;3.50;96.84;97853.50;4962147;28;20050;-88
2020/12/04 04:43:40;;;;;;;16.08;9.60;;;;;;;3.47;97.23;97851.16;4980386;28;20034;-86
2020/12/04 04:46:33;;;;;;;17.60;10.40;;;;;;;3.46;96.94;97849.50;4984310;28;20096;-85
2020/12/04 04:49:08;;;;;;;13.65;8.85;;;;;;;3.46;97.15;97856.63;5013508;28;20096;-86
2020/12/04 04:51:34;;;;;;;13.77;9.32;;;;;;;3.47;96.94;97845.81;4971641;28;20458;-89
2020/12/04 04:54:01;;;;;;;17.67;9.75;;;;;;;3.52;96.59;97856.00;4954229;28;20040;-89
2020/12/04 04:56:28;;;;;;;13.23;8.95;;;;;;;3.53;96.75;97851.50;4982030;28;20145;-88
2020/12/04 04:58:56;;;;;;;17.05;8.77;;;;;;;3.56;96.83;97861.81;4959975;28;20049;-86
2020/12/04 05:01:22;;;;;;;14.63;9.00;;;;;;;3.54;96.89;97863.81;4965674;28;20053;-88
2020/12/04 05:04:00;;;;;;;14.15;8.68;;;;;;;3.56;96.53;97853.81;4989897;28;20041;-87
2020/12/04 05:06:38;;;;;;;14.73;8.85;;;;;;;3.55;96.65;97857.47;4979238;28;20034;-89
2020/12/04 05:09:17;;;;;;;12.10;8.10;;;;;;;3.58;96.39;97857.13;4987421;28;20128;-87
2020/12/04 05:11:57;;;;;;;14.98;9.05;;;;;;;3.59;96.59;97848.16;4992353;28;20077;-88
2020/12/04 05:14:24;;;;;;;12.40;7.40;;;;;;;3.61;96.41;97865.63;4979419;28;20089;-87
2020/12/04 05:16:57;;;;;;;12.45;7.60;;;;;;;3.66;95.71;97850.00;4988587;28;20049;-87
2020/12/04 05:19:33;;;;;;;11.68;7.57;;;;;;;3.66;96.20;97846.50;4992073;28;20061;-88
2020/12/04 05:22:16;;;;;;;11.70;7.18;;;;;;;3.62;95.90;97853.16;4964054;28;20048;-88
2020/12/04 05:24:43;;;;;;;12.52;8.07;;;;;;;3.61;96.04;97851.50;4965896;28;20530;-86
2020/12/04 05:27:23;;;;;;;12.30;7.80;;;;;;;3.62;95.50;97853.16;4959849;28;20090;-86
2020/12/04 05:29:53;;;;;;;10.55;7.22;;;;;;;3.60;95.72;97844.53;4973435;28;20089;-87
2020/12/04 05:32:22;;;;;;;13.15;7.47;;;;;;;3.64;95.34;97852.00;4964038;28;20088;-89
2020/12/04 05:34:48;;;;;;;12.73;7.23;;;;;;;3.60;95.37;97845.34;4953679;28;20449;-88
2020/12/04 05:37:25;;;;;;;11.45;7.45;;;;;;;3.55;95.84;97862.78;4966474;28;20122;-90
2020/12/04 05:39:50;;;;;;;11.70;6.97;;;;;;;3.53;95.90;97843.53;4970250;28;20046;-85
2020/12/04 05:42:31;;;;;;;10.75;6.38;;;;;;;3.49;95.50;97843.03;4968318;28;20034;-88
2020/12/04 05:44:57;;;;;;;11.02;6.88;;;;;;;3.48;95.72;97831.53;4987977;28;20490;-87
2020/12/04 05:48:01;;;;;;;10.80;7.07;;;;;;;3.50;95.19;97847.34;4967809;28;20041;-89
2020/12/04 05:50:27;;;;;;;11.57;6.55;;;;;;;3.46;96.01;97848.66;4992285;28;20034;-88
2020/12/04 05:52:53;;;;;;;11.32;7.70;;;;;;;3.48;95.53;97855.47;4965097;28;20034;-88
2020/12/04 05:55:21;;;;;;;10.52;6.80;;;;;;;3.49;95.32;97843.03;4985443;28;20122;-88
2020/12/04 05:57:54;;;;;;;10.02;6.18;;;;;;;3.50;95.43;97855.31;4992632;28;20034;-88
2020/12/04 06:00:21;;;;;;;11.95;6.95;;;;;;;3.48;94.82;97858.13;4985294;28;20058;-86
2020/12/04 06:02:56;;;;;;;9.00;6.07;;;;;;;3.56;94.70;97869.78;4967248;28;20046;-88
2020/12/04 06:05:26;;;;;;;9.98;6.00;;;;;;;3.47;94.81;97867.09;4958143;28;20049;-88
2020/12/04 06:07:58;;;;;;;12.85;7.07;;;;;;;3.46;95.66;97873.44;4953389;28;20051;-86
2020/12/04 06:10:24;;;;;;;8.98;5.95;;;;;;;3.49;95.05;97869.63;4957975;28;20045;-87
2020/12/04 06:12:51;;;;;;;10.93;6.68;;;;;;;3.50;94.85;97877.44;4979227;28;20045;-87
2020/12/04 06:15:21;;;;;;;10.27;6.55;;;;;;;3.51;95.22;97870.28;4975009;28;20038;-87
2020/12/04 06:18:00;;;;;;;10.60;6.70;;;;;;;3.53;95.26;97881.56;4966085;28;20049;-89
2020/12/04 06:20:28;;;;;;;12.02;7.38;;;;;;;3.50;95.65;97887.22;4957781;28;20042;-88
2020/12/04 06:23:10;;;;;;;10.32;6.57;;;;;;;3.58;95.19;97883.72;4966069;28;20053;-87
2020/12/04 06:25:51;;;;;;;10.70;5.82;;;;;;;3.60;94.93;97876.44;4970420;28;20487;-88
2020/12/04 06:28:40;;;;;;;9.13;5.93;;;;;;;3.63;94.14;97878.75;4988219;28;20050;-88
2020/12/04 06:31:11;;;;;;;8.18;4.95;;;;;;;3.69;94.08;97867.47;4966817;28;20057;-88
2020/12/04 06:33:50;;;;;;;7.43;5.13;;;;;;;3.70;93.88;97874.44;4950756;28;20101;-87
2020/12/04 06:36:30;;;;;;;7.07;4.72;;;;;;;3.74;93.71;97878.44;4992675;28;20510;-91
2020/12/04 06:38:57;;;;;;;8.05;5.13;;;;;;;3.73;94.54;97876.78;4992955;28;20407;-90
2020/12/04 06:41:35;;;;;;;9.05;5.00;;;;;;;3.76;94.26;97879.09;4986663;28;20038;-89
2020/12/04 06:44:18;;;;;;;8.52;5.60;;;;;;;3.72;94.66;97867.13;4975737;28;20053;-89
2020/12/04 06:46:48;;;;;;;8.48;4.63;;;;;;;3.77;94.27;97885.25;4995706;28;20034;-89
2020/12/04 06:52:03;;;;;;;7.63;4.80;;;;;;;3.82;93.89;97880.25;4995238;28;20069;-91
2020/12/04 06:54:31;;;;;;;7.22;4.80;;;;;;;3.86;93.60;97885.09;4999205;28;20049;-89
2020/12/04 06:56:59;;;;;;;7.43;4.63;;;;;;;3.90;93.86;97882.94;4994354;28;20121;-89
2020/12/04 06:59:35;;;;;;;7.82;4.32;;;;;;;3.90;93.95;97898.91;4970816;28;20101;-87
2020/12/04 07:02:09;;;;;;;6.20;4.15;;;;;;;3.95;93.21;97887.75;4997901;28;20046;-87
2020/12/04 07:04:39;;;;;;;6.38;4.05;;;;;;;3.98;92.87;97890.91;4972975;28;20074;-87
2020/12/04 07:07:09;;;;;;;6.07;4.28;;;;;;;4.00;93.21;97888.88;4974722;28;20066;-87
2020/12/04 07:09:36;;;;;;;5.30;3.70;;;;;;;4.01;93.05;97893.22;4970572;28;20057;-90
2020/12/04 07:12:02;;;;;;;5.15;3.45;;;;;;;3.96;93.49;97894.72;4957270;28;20046;-89
2020/12/04 07:14:28;;;;;;;6.20;3.80;;;;;;;3.97;92.93;97904.38;4973453;28;20049;-89
2020/12/04 07:16:54;;;;;;;6.43;4.68;;;;;;;4.08;92.97;97901.38;4983455;28;20046;-85
2020/12/04 07:19:23;;;;;;;5.53;4.00;;;;;;;4.05;92.75;97896.41;4975317;28;20070;-86
2020/12/04 07:21:51;;;;;;;5.00;3.53;;;;;;;4.10;92.72;97904.69;4976314;28;20092;-87
2020/12/04 07:24:17;;;;;;;5.13;3.43;;;;;;;4.21;92.56;97907.03;4974315;28;20126;-88
2020/12/04 07:26:54;;;;;;;5.10;3.50;;;;;;;4.28;92.51;97911.66;4990028;28;20110;-85
2020/12/04 07:29:21;;;;;;;5.82;3.63;;;;;;;4.32;92.23;97921.00;4959123;28;20046;-85
2020/12/04 07:31:52;;;;;;;5.68;3.10;;;;;;;4.34;92.12;97913.66;4973443;28;20124;-87
2020/12/04 07:34:22;;;;;;;4.97;3.25;;;;;;;4.40;91.64;97920.94;4989251;28;20031;-87
2020/12/04 07:36:50;;;;;;;4.65;2.75;;;;;;;4.44;91.91;97911.63;4987702;28;20038;-88
2020/12/04 07:39:34;;;;;;;4.50;2.80;;;;;;;4.47;91.88;97932.59;4975995;28;20168;-87
2020/12/04 07:42:04;;;;;;;7.85;4.00;;;;;;;4.44;91.97;97926.78;4986822;28;20122;-86
2020/12/04 07:44:34;;;;;;;4.78;2.97;;;;;;;4.44;91.90;97932.13;4977827;28;20038;-88
2020/12/04 07:47:13;;;;;;;4.18;2.63;;;;;;;4.54;91.91;97948.75;5004610;28;20037;-86
2020/12/04 07:49:47;;;;;;;4.88;2.85;;;;;;;4.62;92.10;97953.22;4982818;28;20046;-87
2020/12/04 07:52:27;;;;;;;4.40;2.63;;;;;;;4.61;92.34;97956.88;5011027;28;20042;-89
2020/12/04 07:55:14;;;;;;;3.88;2.63;;;;;;;4.57;92.20;97970.53;5014566;28;20045;-87
2020/12/04 07:58:02;;;;;;;5.03;2.55;;;;;;;4.61;92.17;97963.06;4986824;28;20095;-90
2020/12/04 08:00:36;;;;;;;3.43;2.57;;;;;;;4.57;92.18;97959.88;4987696;28;20034;-86
2020/12/04 08:03:11;;;;;;;3.58;2.33;;;;;;;4.52;92.26;97956.91;4988918;28;20469;-86
2020/12/04 08:05:38;;;;;;;3.80;2.42;;;;;;;4.67;91.21;97964.22;5006161;28;20113;-86
2020/12/04 08:08:07;;;;;;;3.67;2.58;;;;;;;4.67;91.20;97974.88;5001705;28;20061;-88
2020/12/04 08:10:33;;;;;;;4.30;2.42;;;;;;;4.66;91.60;97981.19;4976063;28;20042;-88
2020/12/04 08:13:07;;;;;;;3.58;2.50;;;;;;;4.75;90.91;97988.16;4995433;28;20486;-90
2020/12/04 08:15:37;;;;;;;3.33;2.20;;;;;;;4.75;91.10;97998.81;4981577;28;20046;-88
2020/12/04 08:18:04;;;;;;;5.55;2.53;;;;;;;4.78;90.12;98001.13;4969173;28;20030;-88
2020/12/04 08:20:30;;;;;;;3.00;2.10;;;;;;;4.71;90.96;98002.81;4985450;28;20061;-86
2020/12/04 08:22:58;;;;;;;3.30;2.40;;;;;;;4.65;91.29;98003.50;4992763;28;20058;-87
2020/12/04 08:25:27;;;;;;;3.45;2.42;;;;;;;4.69;90.64;98010.16;4980968;28;20396;-89
2020/12/04 08:28:00;;;;;;;3.53;2.35;;;;;;;4.86;89.84;98025.13;4981200;28;20367;-85
2020/12/04 08:30:27;;;;;;;3.95;2.60;;;;;;;4.91;90.25;98020.09;4969491;28;20029;-89
2020/12/04 08:33:06;;;;;;;4.43;2.15;;;;;;;4.91;90.07;98021.94;4999621;28;20494;-86
2020/12/04 08:35:39;;;;;;;2.92;2.58;;;;;;;4.93;89.66;98021.75;4962844;28;20052;-88
2020/12/04 08:38:05;;;;;;;3.45;2.00;;;;;;;4.99;88.98;98047.72;4982590;28;20068;-90
2020/12/04 08:40:32;;;;;;;3.10;2.38;;;;;;;4.99;89.29;98048.59;4991239;28;20077;-86
2020/12/04 08:43:25;;;;;;;2.33;1.83;;;;;;;5.01;88.96;98051.09;4978010;28;20766;-87
2020/12/04 08:45:52;;;;;;;3.65;2.08;;;;;;;4.88;90.05;98052.41;4959309;28;20056;-88
2020/12/04 08:48:32;;;;;;;2.42;1.70;;;;;;;5.04;88.27;98062.22;4963746;28;20095;-86
2020/12/04 08:51:03;;;;;;;2.58;1.77;;;;;;;5.03;88.83;98071.22;4997029;28;21262;-86
2020/12/04 08:53:32;;;;;;;3.58;2.00;;;;;;;5.12;88.28;98079.22;4991714;28;20037;-88
2020/12/04 08:55:59;;;;;;;3.25;1.83;;;;;;;5.02;89.26;98074.03;4982061;28;20129;-89
2020/12/04 08:58:25;;;;;;;3.60;2.13;;;;;;;5.10;88.32;98068.72;4993844;28;20364;-88
2020/12/04 09:00:56;;;;;;;6.45;2.53;;;;;;;5.09;88.80;98069.72;4985932;28;20044;-86
2020/12/04 09:03:26;;;;;;;3.95;1.90;;;;;;;5.18;87.95;98076.72;4990748;28;20411;-93
2020/12/04 09:05:55;;;;;;;4.78;2.15;;;;;;;5.13;88.86;98081.69;5002331;28;20042;-88
2020/12/04 09:08:21;;;;;;;5.13;2.10;;;;;;;5.22;87.76;98074.53;4991954;28;20054;-88
2020/12/04 09:10:46;;;;;;;6.88;2.70;;;;;;;5.28;87.76;98079.16;4993180;28;20038;-89
2020/12/04 09:13:17;;;;;;;8.32;2.95;;;;;;;5.29;87.63;98090.69;4995978;28;20069;-89
2020/12/04 09:15:42;;;;;;;12.13;3.65;;;;;;;5.33;87.47;98102.66;4981825;28;20038;-91
2020/12/04 09:18:08;;;;;;;9.23;4.28;;;;;;;5.40;86.85;98095.63;4994057;28;20397;-92
2020/12/04 09:20:36;;;;;;;13.00;3.58;;;;;;;5.48;87.10;98097.44;4983819;28;20041;-92
2020/12/04 09:23:08;;;;;;;8.65;3.50;;;;;;;5.52;86.63;98107.63;5028893;28;20103;-91
2020/12/04 09:25:36;;;;;;;10.85;3.17;;;;;;;5.66;86.12;98108.72;4994310;28;20038;-91
2020/12/04 09:28:04;;;;;;;10.85;3.40;;;;;;;5.75;85.03;98118.34;4994189;28;20045;-87
2020/12/04 09:30:29;;;;;;;12.60;3.40;;;;;;;5.79;85.66;98113.53;4992995;28;20577;-90
2020/12/04 09:40:13;;;;;;;;;;;;;;;;;;;;;
2020/12/04 09:42:51;;;;;;;3.47;1.63;;;;;;;6.19;81.40;98133.03;4952511;28;20043;-92
2020/12/04 09:45:19;;;;;;;2.17;1.20;;;;;;;6.29;80.26;98141.66;4923614;29;20036;-88
2020/12/04 09:47:48;;;;;;;4.35;1.45;;;;;;;6.22;80.81;98137.22;4922255;28;20034;-90
2020/12/04 09:50:21;;;;;;;2.40;1.20;;;;;;;6.20;80.61;98136.53;4953120;28;20052;-91
2020/12/04 09:52:47;;;;;;;3.70;1.77;;;;;;;6.06;81.69;98136.28;4960252;28;20050;-90
2020/12/04 09:55:13;;;;;;;3.50;1.40;;;;;;;6.21;81.22;98144.38;4963802;28;20103;-89
2020/12/04 09:57:38;;;;;;;2.20;1.10;;;;;;;6.31;79.99;98150.31;4985982;28;20494;-89
2020/12/04 10:00:05;;;;;;;3.15;0.90;;;;;;;6.32;78.62;98156.53;4993132;28;20038;-91
2020/12/04 10:02:31;;;;;;;1.50;0.90;;;;;;;6.25;81.01;98150.22;5005092;28;20034;-90
2020/12/04 10:05:00;;;;;;;4.88;1.77;;;;;;;6.35;79.45;98142.81;4995004;28;20050;-91
2020/12/04 10:07:46;;;;;;;1.98;1.00;;;;;;;6.42;79.05;98150.94;4975759;28;20476;-89
2020/12/04 10:10:11;;;;;;;3.53;1.10;;;;;;;6.37;78.48;98156.00;4991099;28;20121;-87
2020/12/04 10:12:37;;;;;;;0.80;0.70;;;;;;;6.44;78.18;98155.09;4986193;28;20505;-90
2020/12/04 10:15:03;;;;;;;1.13;0.90;;;;;;;6.46;78.63;98141.56;5000194;28;20134;-88
2020/12/04 10:17:31;;;;;;;1.80;0.98;;;;;;;6.44;78.46;98152.44;4984109;28;20072;-87
2020/12/04 10:19:58;;;;;;;3.70;1.00;;;;;;;6.49;77.18;98160.75;4990448;28;20041;-90
2020/12/04 10:22:24;;;;;;;2.65;1.20;;;;;;;6.51;76.97;98155.25;4989176;28;20033;-89
2020/12/04 10:24:51;;;;;;;3.58;1.10;;;;;;;6.41;78.29;98166.16;4999892;28;20038;-90
2020/12/04 10:27:17;;;;;;;1.80;0.90;;;;;;;6.40;78.79;98169.00;5001623;28;20046;-91
2020/12/04 10:29:42;;;;;;;1.52;1.10;;;;;;;6.38;79.78;98155.00;4993197;28;20057;-90
2020/12/04 10:32:08;;;;;;;1.55;0.88;;;;;;;6.41;78.86;98168.00;5001439;28;20403;-89
2020/12/04 10:34:33;;;;;;;3.88;1.20;;;;;;;6.47;78.44;98168.09;4988538;28;20037;-89
2020/12/04 10:36:59;;;;;;;3.15;1.25;;;;;;;6.58;77.05;98177.59;5000389;28;20052;-91
2020/12/04 10:39:24;;;;;;;2.95;1.30;;;;;;;6.53;79.34;98174.59;4987928;28;20041;-92
2020/12/04 10:41:50;;;;;;;3.22;1.33;;;;;;;6.52;77.14;98186.28;5002780;28;20397;-91
2020/12/04 10:44:15;;;;;;;2.50;1.00;;;;;;;6.53;77.38;98179.13;5008029;28;20109;-89
2020/12/04 10:46:41;;;;;;;1.05;0.80;;;;;;;6.56;76.43;98182.25;5017357;28;20112;-92
2020/12/04 10:49:07;;;;;;;2.58;1.05;;;;;;;6.53;77.21;98189.81;4990218;28;20050;-91
2020/12/04 10:51:32;;;;;;;2.17;1.10;;;;;;;6.61;78.07;98181.72;4993711;28;20064;-91
2020/12/04 10:53:58;;;;;;;1.40;1.00;;;;;;;6.71;75.99;98187.66;4991610;28;20034;-91
2020/12/04 10:56:24;;;;;;;1.90;1.00;;;;;;;6.70;75.42;98195.88;5005084;28;20435;-89
2020/12/04 10:58:51;;;;;;;3.05;1.10;;;;;;;6.64;75.51;98195.59;4990792;28;20038;-91
2020/12/04 11:07:04;;;;;;;2.20;1.00;;;;;;;6.81;72.66;98203.50;4960215;28;20223;-92
2020/12/04 11:09:31;;;;;;;1.30;0.90;;;;;;;6.83;72.38;98204.97;4973627;28;20038;-91
2020/12/04 11:12:02;;;;;;;1.40;1.00;;;;;;;6.74;72.24;98214.03;5008509;28;20463;-88
2020/12/04 11:14:27;;;;;;;1.52;0.70;;;;;;;6.78;72.15;98211.88;5002871;28;20034;-89
2020/12/04 11:16:53;;;;;;;1.90;1.00;;;;;;;6.71;72.11;98210.91;5005392;28;20065;-87
2020/12/04 11:19:22;;;;;;;2.95;0.70;;;;;;;6.75;71.97;98201.53;4981470;28;20041;-89
2020/12/04 11:21:48;;;;;;;1.88;0.93;;;;;;;6.74;72.51;98203.34;5001866;28;20034;-91
2020/12/04 11:24:13;;;;;;;1.45;0.70;;;;;;;6.77;73.10;98219.06;4981617;28;20608;-90
2020/12/04 11:26:40;;;;;;;1.50;0.90;;;;;;;6.70;72.41;98218.09;5006853;28;20035;-89
2020/12/04 11:29:09;;;;;;;1.45;0.88;;;;;;;6.89;70.46;98219.50;5017627;28;20097;-89
2020/12/04 11:31:37;;;;;;;2.00;0.98;;;;;;;6.91;71.75;98230.00;5004637;28;20042;-86
2020/12/04 11:34:03;;;;;;;0.98;0.88;;;;;;;6.95;72.67;98229.47;4987703;28;20515;-89
2020/12/04 11:36:33;;;;;;;1.80;0.80;;;;;;;6.98;70.83;98229.09;5002152;28;20038;-91
2020/12/04 11:38:58;;;;;;;0.82;0.60;;;;;;;7.07;72.18;98245.94;4980940;28;20124;-92
2020/12/04 11:41:33;;;;;;;3.60;1.77;;;;;;;7.13;71.17;98245.22;4992007;28;20116;-88
2020/12/04 11:43:58;;;;;;;1.83;0.90;;;;;;;7.05;71.44;98249.78;5008278;28;20038;-88
2020/12/04 11:46:26;;;;;;;1.50;0.80;;;;;;;7.04;71.42;98262.34;4992396;28;20870;-88
2020/12/04 11:48:55;;;;;;;1.08;0.80;;;;;;;6.81;71.15;98252.44;5009413;28;20041;-89
2020/12/04 11:51:20;;;;;;;1.10;0.73;;;;;;;6.75;71.91;98252.31;5003550;28;20093;-90
2020/12/04 11:53:45;;;;;;;1.17;0.70;;;;;;;6.86;70.30;98259.94;4983152;28;20041;-88
2020/12/04 11:56:18;;;;;;;1.80;0.88;;;;;;;6.92;71.78;98261.91;4982627;28;20046;-89
2020/12/04 11:58:44;;;;;;;1.20;0.90;;;;;;;6.72;70.81;98263.38;4984017;28;20409;-88
2020/12/04 12:01:09;;;;;;;0.73;0.60;;;;;;;6.69;70.11;98264.53;4978524;28;20042;-90